Time;durP1;ratioP1;P1;durP2;ratioP2;P2;SDS_P1;SDS_P2;PMS_P1;PMS_P2;Temp;Humidity;BMP_temperature;BMP_pressure;BME280_temperature;BME280_humidity;BME280_pressure;Samples;Min_cycle;Max_cycle;Signal;HPM_P1;HPM_P2
2021/11/01 12:57:24;;;;;;;;;;;;;;;21.52;66.27;95786.00;5042140;28;19927;-68
2021/11/01 13:03:22;;;;;;;11.18;1.27;;;;;;;;;;5050496;27;20399;-74
2021/11/01 13:08:49;;;;;;;3.53;1.30;;;;;;;21.56;55.60;95773.69;5079094;27;20403;-74
2021/11/01 13:11:37;;;;;;;7.30;1.40;;;;;;;17.92;73.26;95779.78;5084867;28;20041;-69
2021/11/01 13:14:28;;;;;;;4.75;1.30;;;;;;;19.43;70.98;95769.88;5066649;28;20396;-64
2021/11/01 13:19:50;;;;;;;3.83;1.00;;;;;;;19.97;67.76;95775.19;5068420;28;20032;-64
2021/11/01 13:22:29;;;;;;;2.90;1.37;;;;;;;20.06;67.49;95780.91;5082961;28;20016;-64
2021/11/01 13:38:33;;;;;;;2.88;1.15;;;;;;;20.25;66.82;95773.88;5068081;28;20454;-64
2021/11/01 13:40:59;;;;;;;2.30;1.23;;;;;;;20.31;66.86;95774.94;5067168;28;20021;-64
2021/11/01 13:43:29;;;;;;;2.83;1.20;;;;;;;20.35;66.82;95772.13;5066671;28;20102;-66
2021/11/01 13:45:58;;;;;;;3.83;1.45;;;;;;;20.40;67.30;95775.16;5065425;28;20043;-64
2021/11/01 13:48:30;;;;;;;3.40;1.30;;;;;;;20.35;68.46;95780.38;5067627;28;20502;-64
2021/11/01 13:51:10;;;;;;;3.85;1.20;;;;;;;20.32;67.92;95784.72;5067365;28;20459;-64
2021/11/01 13:53:48;;;;;;;4.45;1.33;;;;;;;20.34;69.14;95779.59;5068096;28;20033;-64
2021/11/01 13:56:33;;;;;;;3.43;1.30;;;;;;;20.36;69.16;95777.22;5049754;28;20528;-65
2021/11/01 13:59:12;;;;;;;6.70;1.30;;;;;;;20.31;68.61;95783.19;5067363;28;20078;-65
2021/11/01 14:02:12;;;;;;;6.18;1.40;;;;;;;20.33;68.67;95776.09;5067035;28;20403;-65
2021/11/01 14:13:10;;;;;;;3.45;1.40;;;;;;;20.34;68.49;95754.88;5067974;28;20031;-64
2021/11/01 14:16:14;;;;;;;3.60;1.30;;;;;;;20.35;70.40;95756.44;5066723;28;20437;-65
2021/11/01 15:15:07;;;;;;;2.97;1.00;;;;;;;20.61;69.06;95730.72;5053623;28;20028;-69
2021/11/01 15:20:01;;;;;;;6.53;1.58;;;;;;;20.56;69.31;95731.22;5053316;28;20021;-68
2021/11/01 15:22:49;;;;;;;4.07;1.55;;;;;;;20.50;69.24;95727.44;5068168;28;20108;-68
2021/11/01 16:19:41;;;;;;;4.83;1.70;;;;;;;9.79;94.23;95774.19;5053306;28;20028;-71
2021/11/01 16:22:11;;;;;;;4.10;1.60;;;;;;;9.89;95.13;95766.63;5052001;28;20027;-70
2021/11/01 16:24:38;;;;;;;4.65;1.85;;;;;;;9.76;95.09;95769.47;5046533;28;20108;-69
2021/11/01 16:27:06;;;;;;;3.30;1.63;;;;;;;9.67;96.63;95768.09;5032602;28;20509;-67
2021/11/01 16:30:19;;;;;;;5.15;1.90;;;;;;;9.57;97.33;95772.16;5050790;28;20125;-65
2021/11/01 16:33:01;;;;;;;3.33;1.50;;;;;;;9.76;96.81;95780.28;5047343;28;20090;-67
2021/11/01 16:35:07;;;;;;;3.92;1.80;;;;;;;9.94;95.50;95786.06;5044169;28;21359;-68
2021/11/01 16:37:57;;;;;;;4.35;2.00;;;;;;;9.77;96.38;95776.44;5046134;28;20040;-70
2021/11/01 16:40:23;;;;;;;5.30;1.98;;;;;;;9.63;96.50;95781.56;5050625;28;20025;-66
2021/11/01 16:42:49;;;;;;;5.20;2.07;;;;;;;9.65;97.19;95790.09;5048456;28;20023;-67
2021/11/01 16:45:30;;;;;;;4.18;1.88;;;;;;;9.78;97.05;95788.81;5049538;28;20024;-63
2021/11/01 16:47:58;;;;;;;4.20;2.10;;;;;;;9.60;97.13;95784.94;5048571;28;20028;-67
2021/11/01 16:50:24;;;;;;;3.78;2.10;;;;;;;9.54;97.74;95791.78;5032003;28;20514;-66
2021/11/01 16:52:50;;;;;;;3.70;2.00;;;;;;;9.59;97.33;95793.44;5048459;28;20112;-67
2021/11/01 16:55:26;;;;;;;4.90;2.20;;;;;;;9.68;97.05;95794.00;5032724;28;20028;-70
2021/11/01 16:57:58;;;;;;;3.92;1.80;;;;;;;9.74;96.75;95795.28;5050191;28;20537;-71
2021/11/01 17:00:32;;;;;;;5.25;2.25;;;;;;;9.48;97.39;95795.88;5048952;28;20475;-71
2021/11/01 17:08:24;;;;;;;5.27;2.30;;;;;;;9.30;97.76;95786.63;5046337;28;20025;-74
2021/11/01 18:24:49;;;;;;;4.47;2.15;;;;;;;9.38;96.21;95782.91;5042387;28;20043;-68
2021/11/01 18:53:14;;;;;;;5.82;2.70;;;;;;;7.47;100.00;95749.16;5037690;28;20018;-78
2021/11/01 18:55:59;;;;;;;6.23;2.70;;;;;;;7.37;100.00;95750.44;5054566;28;20064;-77
2021/11/01 18:58:27;;;;;;;6.28;3.25;;;;;;;7.29;100.00;95753.25;5036820;28;20024;-77
2021/11/01 19:00:57;;;;;;;6.45;3.55;;;;;;;7.19;100.00;95754.50;5048214;28;20034;-77
2021/11/01 19:03:25;;;;;;;7.13;3.53;;;;;;;7.14;100.00;95753.94;5022008;28;20943;-78
2021/11/01 19:06:06;;;;;;;7.25;3.38;;;;;;;7.10;100.00;95747.69;5029059;28;20368;-78
2021/11/01 20:08:05;;;;;;;3.17;1.50;;;;;;;6.35;100.00;95788.31;5048914;28;20017;-85
2021/11/01 21:27:22;;;;;;;4.03;1.80;;;;;;;6.10;100.00;95770.59;5050966;28;20045;-84
2021/11/01 21:29:48;;;;;;;3.63;1.50;;;;;;;6.07;100.00;95779.28;5038518;28;20029;-83
2021/11/01 21:32:14;;;;;;;3.45;1.40;;;;;;;6.08;100.00;95776.28;5039377;28;20035;-85
2021/11/01 21:34:43;;;;;;;3.37;1.57;;;;;;;6.03;100.00;95781.88;5040136;28;20386;-85
2021/11/01 21:37:09;;;;;;;3.42;1.65;;;;;;;5.99;100.00;95759.47;5040158;28;20067;-84
2021/11/01 21:39:36;;;;;;;3.70;1.80;;;;;;;5.97;100.00;95775.13;5039437;28;20036;-81
2021/11/01 21:42:33;;;;;;;3.13;1.55;;;;;;;5.97;100.00;95766.31;5030959;28;20114;-81
2021/11/01 21:45:00;;;;;;;3.38;1.35;;;;;;;5.95;100.00;95768.53;5035227;28;20128;-82
2021/11/01 21:47:26;;;;;;;3.20;1.50;;;;;;;5.92;100.00;95761.13;5037267;28;20027;-82
2021/11/01 21:49:52;;;;;;;4.97;1.42;;;;;;;5.93;100.00;95762.69;5037779;28;20083;-81
2021/11/01 21:52:18;;;;;;;4.37;1.60;;;;;;;5.92;100.00;95758.44;5037650;28;20033;-82
2021/11/01 21:54:46;;;;;;;3.85;1.58;;;;;;;5.93;100.00;95766.16;5039008;28;20024;-82
2021/11/01 21:57:27;;;;;;;4.40;1.70;;;;;;;5.92;100.00;95761.13;5038928;28;20053;-81
2021/11/01 22:24:03;;;;;;;3.63;1.50;;;;;;;5.85;100.00;95721.34;5056454;28;20123;-81
2021/11/01 22:42:41;;;;;;;4.10;1.50;;;;;;;6.10;100.00;95716.88;5055668;28;20036;-81
2021/11/01 22:55:51;;;;;;;5.37;1.70;;;;;;;6.32;100.00;95716.47;5055851;28;20032;-81
2021/11/01 22:58:18;;;;;;;4.03;1.38;;;;;;;6.38;100.00;95711.63;5037754;28;20027;-81
2021/11/01 23:00:50;;;;;;;3.97;1.65;;;;;;;6.44;100.00;95713.78;5055144;28;20025;-81
2021/11/01 23:03:31;;;;;;;4.38;1.60;;;;;;;6.49;100.00;95704.69;5037735;28;20035;-82
2021/11/01 23:06:30;;;;;;;4.38;1.90;;;;;;;6.54;100.00;95712.53;5037932;28;20057;-82
2021/11/01 23:33:32;;;;;;;4.22;1.27;;;;;;;6.66;100.00;95677.59;5055071;28;20399;-82
2021/11/01 23:35:58;;;;;;;5.63;1.20;;;;;;;6.64;100.00;95679.81;5037458;28;20029;-82
2021/11/01 23:38:24;;;;;;;4.33;1.30;;;;;;;6.64;100.00;95672.53;5055155;28;20385;-81
2021/11/01 23:40:50;;;;;;;2.75;1.13;;;;;;;6.70;100.00;95675.78;5054478;28;20031;-82
2021/11/01 23:43:16;;;;;;;4.13;1.63;;;;;;;6.72;100.00;95667.38;5037434;28;20029;-82
2021/11/01 23:45:43;;;;;;;3.92;1.50;;;;;;;6.78;100.00;95666.81;5037274;28;20054;-82
2021/11/01 23:48:09;;;;;;;3.13;1.30;;;;;;;6.76;100.00;95663.66;5036836;28;20060;-82
2021/11/01 23:50:35;;;;;;;4.20;1.40;;;;;;;6.78;100.00;95652.59;5036722;28;20079;-82
2021/11/01 23:53:12;;;;;;;4.05;1.50;;;;;;;6.74;100.00;95652.50;5069795;28;20047;-82
2021/11/01 23:55:38;;;;;;;3.03;1.40;;;;;;;6.75;100.00;95658.66;5036969;28;20025;-82
2021/11/01 23:58:04;;;;;;;3.80;1.35;;;;;;;6.76;100.00;95655.59;5036956;28;20048;-82
